»·PEaware :: N80VJ KSBP-KSBP

N80VJ :: KSBP-KSBP

FLIGHT INFORMATION

Flight Status: Arrived
Operator: Privately registered:
United States
More flights under this callsign
Pilot: Christopher S. (28961)
Aircraft: CIRRUS SR-20
(SR20)
More flights by this aircraft type
Origin: KSBP San Luis Co Regl
United States
Destination: KSBP San Luis Co Regl
United States
More flights between these airports :: More routes between these airports
Route:
File this flight plan on PilotEdge
Remarks: CLOSED TRAFFIC
Altitude:
(Current/Filed)
1,200ft
Speed:
(Current/Filed)
150kts
Departed: 06-May-20 11:55 AM
Arrived: 06-May-20 12:13 PM
Distance/Time
Traveled:
0nm/0:18
Distance/Time
To Go:
Arrived

Flight Plot

Page will automatically refresh every two minutes.


Map Options




Map Legend


Flown Route
Filed Route
Departure Airport
Arrival Airport
Navaid (VOR, NDB)
Fix

Horizontal Profiles

Position Reports

Time Latitude Longitude Heading Altitude Ground
Speed
06-May-20 11:36 35.238735 -120.641046 299 214ft 0kts
06-May-20 11:37 35.238735 -120.641046 299 214ft 0kts
06-May-20 11:38 35.238735 -120.641046 299 214ft 0kts
06-May-20 11:39 35.238735 -120.641046 299 214ft 0kts
06-May-20 11:40 35.238735 -120.641046 299 214ft 0kts
06-May-20 11:41 35.238735 -120.641046 299 214ft 0kts
06-May-20 11:42 35.238735 -120.641046 299 214ft 0kts
06-May-20 11:43 35.238735 -120.641046 299 214ft 0kts
06-May-20 11:44 35.238735 -120.641046 299 214ft 0kts
06-May-20 11:45 35.238735 -120.641046 299 214ft 0kts
06-May-20 11:46 35.238735 -120.641046 299 214ft 0kts
06-May-20 11:47 35.238735 -120.641046 299 214ft 0kts
06-May-20 11:48 35.238735 -120.641046 299 214ft 0kts
06-May-20 11:49 35.238029 -120.640312 121 214ft 16kts
06-May-20 11:50 35.234786 -120.634628 125 214ft 16kts
06-May-20 11:51 35.233207 -120.632090 236 214ft 0kts
06-May-20 11:52 35.233207 -120.632090 236 214ft 0kts
06-May-20 11:53 35.233207 -120.632090 236 214ft 0kts
06-May-20 11:54 35.235450 -120.637779 305 242ft 76kts
06-May-20 11:55 35.248877 -120.660069 275 1200ft 93kts
06-May-20 11:56 35.221947 -120.665716 115 1302ft 162kts
06-May-20 11:57 35.207667 -120.622175 111 1142ft 123kts
06-May-20 11:58 35.214218 -120.598107 345 1050ft 78kts
06-May-20 11:59 35.225240 -120.619831 303 513ft 70kts
06-May-20 12:00 35.235229 -120.637362 306 214ft 55kts
06-May-20 12:01 35.247582 -120.661304 271 1048ft 91kts
06-May-20 12:03 35.223042 -120.672798 115 1269ft 162kts
06-May-20 12:04 35.209801 -120.635103 119 1167ft 104kts
06-May-20 12:05 35.210480 -120.609426 2 938ft 92kts
06-May-20 12:06 35.226751 -120.622331 303 428ft 71kts
06-May-20 12:07 35.236633 -120.639876 303 214ft 60kts
06-May-20 12:08 35.248051 -120.664901 268 1040ft 96kts
06-May-20 12:09 35.222368 -120.673644 116 1209ft 146kts
06-May-20 12:10 35.207525 -120.632756 127 1516ft 138kts
06-May-20 12:11 35.213905 -120.606458 339 835ft 92kts
06-May-20 12:12 35.229270 -120.626889 301 308ft 67kts
06-May-20 12:13 35.236826 -120.639883 336 214ft 16kts
06-May-20 12:14 35.238667 -120.640985 305 214ft 0kts
06-May-20 12:15 35.238667 -120.640985 305 214ft 0kts
06-May-20 12:16 35.238667 -120.640985 305 214ft 0kts
06-May-20 12:17 35.238667 -120.640985 305 214ft 0kts
06-May-20 12:17 35.238667 -120.640985 305 214ft 0kts
06-May-20 12:19 35.238667 -120.640985 305 214ft 0kts
06-May-20 12:20 35.238667 -120.640985 305 214ft 0kts
06-May-20 12:20 35.238667 -120.640985 305 214ft 0kts
06-May-20 12:21 35.238667 -120.640985 305 214ft 0kts
06-May-20 12:22 35.238667 -120.640985 305 214ft 0kts
06-May-20 12:24 35.238667 -120.640985 305 214ft 0kts
06-May-20 12:24 35.238667 -120.640985 305 214ft 0kts
06-May-20 12:25 35.238667 -120.640985 305 214ft 0kts
06-May-20 12:26 35.238667 -120.640985 305 214ft 0kts

Navigation Log

Ident Type
Flight plan parsing failed, navigation log unavailable